HKT weather

Phuket International Airport
Phuket, Phuket Province, Thailand

Public forecast

Using degrees Celsius for public forecast. Weather courtesy of forecast.io.

Current aviation weather report (METAR) for Phuket International Airport

Retrieved 2019/10/19 09:30 UTC (0 seconds ago):

VTSP 190930Z 09009KT 060V130 9999 FEW020 BKN100 29/23 Q1009 NOSIG

Aviation forecast (TAF) for Phuket International Airport

Retrieved 2019/10/19 06:37 UTC (3 hours ago):

TAF VTSP 190500Z 1906/2012 08008KT 9999 SCT020 TEMPO 1908/1914 08015G25KT 5000 TSRA FEW018CB SCT020 BKN100 BECMG 1914/1916 00000KT BECMG 2000/2002 08008KT TEMPO 2006/2012 08015G25KT 5000 TSRA FEW018CB SCT020 BKN100